sensor_id;sensor_type;location;lat;lon;timestamp;P1;durP1;ratioP1;P2;durP2;ratioP2
32347;SDS011;18821;44.800;10.326;2023-06-10T00:00:39;11.63;;;8.60;;
32347;SDS011;18821;44.800;10.326;2023-06-10T00:03:09;11.27;;;7.90;;
32347;SDS011;18821;44.800;10.326;2023-06-10T00:05:35;16.13;;;7.30;;
32347;SDS011;18821;44.800;10.326;2023-06-10T00:08:04;10.32;;;6.30;;
32347;SDS011;18821;44.800;10.326;2023-06-10T00:10:34;14.00;;;5.35;;
32347;SDS011;18821;44.800;10.326;2023-06-10T00:13:04;10.77;;;4.47;;
32347;SDS011;18821;44.800;10.326;2023-06-10T00:15:33;7.38;;;5.05;;
32347;SDS011;18821;44.800;10.326;2023-06-10T00:18:01;8.10;;;4.40;;
32347;SDS011;18821;44.800;10.326;2023-06-10T00:20:27;10.50;;;5.03;;
32347;SDS011;18821;44.800;10.326;2023-06-10T00:22:53;12.93;;;4.15;;
32347;SDS011;18821;44.800;10.326;2023-06-10T00:25:19;11.40;;;4.15;;
32347;SDS011;18821;44.800;10.326;2023-06-10T00:27:45;7.05;;;3.92;;
32347;SDS011;18821;44.800;10.326;2023-06-10T00:30:11;10.35;;;3.72;;
32347;SDS011;18821;44.800;10.326;2023-06-10T00:32:38;8.57;;;3.88;;
32347;SDS011;18821;44.800;10.326;2023-06-10T00:35:04;9.07;;;4.32;;
32347;SDS011;18821;44.800;10.326;2023-06-10T00:37:31;5.18;;;3.22;;
32347;SDS011;18821;44.800;10.326;2023-06-10T00:40:00;7.07;;;3.40;;
32347;SDS011;18821;44.800;10.326;2023-06-10T00:42:27;10.82;;;3.78;;
32347;SDS011;18821;44.800;10.326;2023-06-10T00:44:54;6.90;;;3.05;;
32347;SDS011;18821;44.800;10.326;2023-06-10T00:47:20;4.72;;;2.75;;
32347;SDS011;18821;44.800;10.326;2023-06-10T00:49:47;5.22;;;3.20;;
32347;SDS011;18821;44.800;10.326;2023-06-10T00:52:15;6.07;;;3.28;;
32347;SDS011;18821;44.800;10.326;2023-06-10T00:54:44;5.05;;;3.05;;
32347;SDS011;18821;44.800;10.326;2023-06-10T00:57:10;6.53;;;3.17;;
32347;SDS011;18821;44.800;10.326;2023-06-10T00:59:38;8.48;;;3.03;;
32347;SDS011;18821;44.800;10.326;2023-06-10T01:02:08;9.23;;;3.38;;
32347;SDS011;18821;44.800;10.326;2023-06-10T01:04:34;6.72;;;3.30;;
32347;SDS011;18821;44.800;10.326;2023-06-10T01:12:43;9.65;;;3.13;;
32347;SDS011;18821;44.800;10.326;2023-06-10T01:15:33;8.88;;;3.65;;
32347;SDS011;18821;44.800;10.326;2023-06-10T01:18:09;8.43;;;3.03;;
32347;SDS011;18821;44.800;10.326;2023-06-10T01:20:40;10.10;;;3.42;;
32347;SDS011;18821;44.800;10.326;2023-06-10T01:23:09;10.40;;;3.35;;
32347;SDS011;18821;44.800;10.326;2023-06-10T01:26:09;5.95;;;3.10;;
32347;SDS011;18821;44.800;10.326;2023-06-10T01:28:33;7.28;;;3.10;;
32347;SDS011;18821;44.800;10.326;2023-06-10T01:31:13;7.25;;;3.05;;
32347;SDS011;18821;44.800;10.326;2023-06-10T01:33:48;10.93;;;3.38;;
32347;SDS011;18821;44.800;10.326;2023-06-10T01:36:17;7.18;;;3.78;;
32347;SDS011;18821;44.800;10.326;2023-06-10T01:38:45;10.25;;;3.40;;
32347;SDS011;18821;44.800;10.326;2023-06-10T01:41:14;8.38;;;3.20;;
32347;SDS011;18821;44.800;10.326;2023-06-10T01:43:43;10.52;;;3.40;;
32347;SDS011;18821;44.800;10.326;2023-06-10T01:46:12;6.63;;;3.65;;
32347;SDS011;18821;44.800;10.326;2023-06-10T01:48:41;8.77;;;3.90;;
32347;SDS011;18821;44.800;10.326;2023-06-10T01:51:08;8.70;;;3.40;;
32347;SDS011;18821;44.800;10.326;2023-06-10T01:53:44;9.52;;;3.90;;
32347;SDS011;18821;44.800;10.326;2023-06-10T01:56:10;10.48;;;4.00;;
32347;SDS011;18821;44.800;10.326;2023-06-10T01:58:42;10.10;;;3.97;;
32347;SDS011;18821;44.800;10.326;2023-06-10T02:01:08;8.73;;;2.90;;
32347;SDS011;18821;44.800;10.326;2023-06-10T02:03:36;5.85;;;3.33;;
32347;SDS011;18821;44.800;10.326;2023-06-10T02:06:02;6.25;;;3.47;;
32347;SDS011;18821;44.800;10.326;2023-06-10T02:08:28;10.40;;;4.03;;
32347;SDS011;18821;44.800;10.326;2023-06-10T02:10:54;4.80;;;3.22;;
32347;SDS011;18821;44.800;10.326;2023-06-10T02:13:20;12.43;;;3.88;;
32347;SDS011;18821;44.800;10.326;2023-06-10T02:15:51;7.80;;;2.90;;
32347;SDS011;18821;44.800;10.326;2023-06-10T02:18:19;5.13;;;3.47;;
32347;SDS011;18821;44.800;10.326;2023-06-10T02:20:46;10.07;;;3.25;;
32347;SDS011;18821;44.800;10.326;2023-06-10T02:23:12;11.95;;;3.65;;
32347;SDS011;18821;44.800;10.326;2023-06-10T02:25:38;9.32;;;3.72;;
32347;SDS011;18821;44.800;10.326;2023-06-10T02:28:04;7.03;;;3.72;;
32347;SDS011;18821;44.800;10.326;2023-06-10T02:30:30;9.65;;;3.50;;
32347;SDS011;18821;44.800;10.326;2023-06-10T02:32:56;11.57;;;4.03;;
32347;SDS011;18821;44.800;10.326;2023-06-10T02:35:25;8.63;;;4.78;;
32347;SDS011;18821;44.800;10.326;2023-06-10T02:37:52;13.05;;;4.30;;
32347;SDS011;18821;44.800;10.326;2023-06-10T02:40:19;10.23;;;4.35;;
32347;SDS011;18821;44.800;10.326;2023-06-10T02:42:45;11.85;;;5.35;;
32347;SDS011;18821;44.800;10.326;2023-06-10T02:45:11;15.80;;;7.70;;
32347;SDS011;18821;44.800;10.326;2023-06-10T02:47:41;10.73;;;6.35;;
32347;SDS011;18821;44.800;10.326;2023-06-10T02:50:08;11.07;;;5.00;;
32347;SDS011;18821;44.800;10.326;2023-06-10T02:52:43;8.32;;;5.30;;
32347;SDS011;18821;44.800;10.326;2023-06-10T02:55:10;11.25;;;5.45;;
32347;SDS011;18821;44.800;10.326;2023-06-10T02:57:44;17.20;;;4.97;;
32347;SDS011;18821;44.800;10.326;2023-06-10T03:00:12;13.35;;;5.50;;
32347;SDS011;18821;44.800;10.326;2023-06-10T03:02:42;11.73;;;5.18;;
32347;SDS011;18821;44.800;10.326;2023-06-10T03:05:10;10.15;;;4.55;;
32347;SDS011;18821;44.800;10.326;2023-06-10T03:07:40;10.48;;;5.20;;
32347;SDS011;18821;44.800;10.326;2023-06-10T03:10:07;12.80;;;4.70;;
32347;SDS011;18821;44.800;10.326;2023-06-10T03:12:34;8.85;;;5.10;;
32347;SDS011;18821;44.800;10.326;2023-06-10T03:15:00;10.82;;;5.13;;
32347;SDS011;18821;44.800;10.326;2023-06-10T03:17:31;11.45;;;4.68;;
32347;SDS011;18821;44.800;10.326;2023-06-10T03:19:57;8.63;;;4.22;;
32347;SDS011;18821;44.800;10.326;2023-06-10T03:22:23;12.85;;;4.60;;
32347;SDS011;18821;44.800;10.326;2023-06-10T03:25:09;7.60;;;4.38;;
32347;SDS011;18821;44.800;10.326;2023-06-10T03:27:42;10.35;;;4.72;;
32347;SDS011;18821;44.800;10.326;2023-06-10T03:30:09;11.02;;;4.03;;
32347;SDS011;18821;44.800;10.326;2023-06-10T03:32:37;11.77;;;4.45;;
32347;SDS011;18821;44.800;10.326;2023-06-10T03:35:06;9.95;;;4.88;;
32347;SDS011;18821;44.800;10.326;2023-06-10T03:37:33;8.25;;;4.68;;
32347;SDS011;18821;44.800;10.326;2023-06-10T03:39:59;9.73;;;4.53;;
32347;SDS011;18821;44.800;10.326;2023-06-10T03:42:25;6.40;;;4.57;;
32347;SDS011;18821;44.800;10.326;2023-06-10T03:44:52;10.25;;;4.93;;
32347;SDS011;18821;44.800;10.326;2023-06-10T03:47:18;7.70;;;4.60;;
32347;SDS011;18821;44.800;10.326;2023-06-10T03:49:44;8.88;;;4.28;;
32347;SDS011;18821;44.800;10.326;2023-06-10T03:52:10;10.18;;;4.85;;
32347;SDS011;18821;44.800;10.326;2023-06-10T03:54:36;14.10;;;4.75;;
32347;SDS011;18821;44.800;10.326;2023-06-10T03:57:03;9.00;;;4.35;;
32347;SDS011;18821;44.800;10.326;2023-06-10T03:59:29;7.72;;;3.92;;
32347;SDS011;18821;44.800;10.326;2023-06-10T04:01:55;15.15;;;4.50;;
32347;SDS011;18821;44.800;10.326;2023-06-10T04:04:22;8.65;;;4.13;;
32347;SDS011;18821;44.800;10.326;2023-06-10T04:06:48;12.63;;;5.40;;
32347;SDS011;18821;44.800;10.326;2023-06-10T04:09:15;10.63;;;5.68;;
32347;SDS011;18821;44.800;10.326;2023-06-10T04:11:41;12.98;;;4.38;;
32347;SDS011;18821;44.800;10.326;2023-06-10T04:14:08;12.07;;;5.05;;
32347;SDS011;18821;44.800;10.326;2023-06-10T04:16:34;9.55;;;4.95;;
32347;SDS011;18821;44.800;10.326;2023-06-10T04:19:03;8.70;;;4.30;;
32347;SDS011;18821;44.800;10.326;2023-06-10T04:21:30;10.85;;;4.97;;
32347;SDS011;18821;44.800;10.326;2023-06-10T04:23:56;11.23;;;4.68;;
32347;SDS011;18821;44.800;10.326;2023-06-10T04:26:22;13.27;;;4.72;;
32347;SDS011;18821;44.800;10.326;2023-06-10T04:28:48;10.77;;;4.78;;
32347;SDS011;18821;44.800;10.326;2023-06-10T04:31:14;9.90;;;4.85;;
32347;SDS011;18821;44.800;10.326;2023-06-10T04:33:41;8.65;;;4.15;;
32347;SDS011;18821;44.800;10.326;2023-06-10T04:36:08;8.93;;;3.90;;
32347;SDS011;18821;44.800;10.326;2023-06-10T04:38:35;10.27;;;5.10;;
32347;SDS011;18821;44.800;10.326;2023-06-10T04:41:01;8.20;;;4.53;;
32347;SDS011;18821;44.800;10.326;2023-06-10T04:43:30;8.30;;;4.28;;
32347;SDS011;18821;44.800;10.326;2023-06-10T04:45:58;7.60;;;4.35;;
32347;SDS011;18821;44.800;10.326;2023-06-10T04:48:25;15.25;;;5.00;;
32347;SDS011;18821;44.800;10.326;2023-06-10T04:50:52;9.57;;;4.75;;
32347;SDS011;18821;44.800;10.326;2023-06-10T04:53:18;11.68;;;4.72;;
32347;SDS011;18821;44.800;10.326;2023-06-10T04:55:46;7.28;;;4.22;;
32347;SDS011;18821;44.800;10.326;2023-06-10T04:58:14;7.63;;;4.10;;
32347;SDS011;18821;44.800;10.326;2023-06-10T05:00:40;11.73;;;5.30;;
32347;SDS011;18821;44.800;10.326;2023-06-10T05:03:06;12.75;;;5.38;;
32347;SDS011;18821;44.800;10.326;2023-06-10T05:05:32;13.05;;;7.03;;
32347;SDS011;18821;44.800;10.326;2023-06-10T05:07:58;15.23;;;6.40;;
32347;SDS011;18821;44.800;10.326;2023-06-10T05:10:24;10.00;;;5.60;;
32347;SDS011;18821;44.800;10.326;2023-06-10T05:12:51;10.40;;;5.78;;
32347;SDS011;18821;44.800;10.326;2023-06-10T05:15:16;15.68;;;5.90;;
32347;SDS011;18821;44.800;10.326;2023-06-10T05:17:42;11.50;;;6.30;;
32347;SDS011;18821;44.800;10.326;2023-06-10T05:20:09;15.10;;;6.72;;
32347;SDS011;18821;44.800;10.326;2023-06-10T05:22:36;13.27;;;6.00;;
32347;SDS011;18821;44.800;10.326;2023-06-10T05:25:02;10.55;;;6.07;;
32347;SDS011;18821;44.800;10.326;2023-06-10T05:27:28;13.63;;;6.63;;
32347;SDS011;18821;44.800;10.326;2023-06-10T05:29:54;11.50;;;5.63;;
32347;SDS011;18821;44.800;10.326;2023-06-10T05:32:20;13.10;;;5.65;;
32347;SDS011;18821;44.800;10.326;2023-06-10T05:34:46;10.43;;;5.93;;
32347;SDS011;18821;44.800;10.326;2023-06-10T05:37:12;13.18;;;6.10;;
32347;SDS011;18821;44.800;10.326;2023-06-10T05:39:38;12.18;;;5.22;;
32347;SDS011;18821;44.800;10.326;2023-06-10T05:42:06;9.98;;;5.28;;
32347;SDS011;18821;44.800;10.326;2023-06-10T05:44:33;12.25;;;4.90;;
32347;SDS011;18821;44.800;10.326;2023-06-10T05:46:59;9.48;;;5.03;;
32347;SDS011;18821;44.800;10.326;2023-06-10T05:49:25;7.97;;;4.60;;
32347;SDS011;18821;44.800;10.326;2023-06-10T05:51:51;9.25;;;5.10;;
32347;SDS011;18821;44.800;10.326;2023-06-10T05:54:18;11.65;;;5.65;;
32347;SDS011;18821;44.800;10.326;2023-06-10T05:56:44;12.40;;;5.30;;
32347;SDS011;18821;44.800;10.326;2023-06-10T05:59:10;8.95;;;4.13;;
32347;SDS011;18821;44.800;10.326;2023-06-10T06:01:36;9.82;;;4.43;;
32347;SDS011;18821;44.800;10.326;2023-06-10T06:04:02;7.28;;;4.57;;
32347;SDS011;18821;44.800;10.326;2023-06-10T06:06:28;8.50;;;4.65;;
32347;SDS011;18821;44.800;10.326;2023-06-10T06:08:54;5.95;;;3.65;;
32347;SDS011;18821;44.800;10.326;2023-06-10T06:11:20;9.10;;;3.88;;
32347;SDS011;18821;44.800;10.326;2023-06-10T06:13:46;6.95;;;3.38;;
32347;SDS011;18821;44.800;10.326;2023-06-10T06:16:13;6.85;;;2.38;;
32347;SDS011;18821;44.800;10.326;2023-06-10T06:18:39;9.45;;;3.15;;
32347;SDS011;18821;44.800;10.326;2023-06-10T06:21:05;7.28;;;2.97;;
32347;SDS011;18821;44.800;10.326;2023-06-10T06:23:31;6.82;;;3.55;;
32347;SDS011;18821;44.800;10.326;2023-06-10T06:25:57;13.52;;;4.00;;
32347;SDS011;18821;44.800;10.326;2023-06-10T06:28:23;6.22;;;3.45;;
32347;SDS011;18821;44.800;10.326;2023-06-10T06:30:54;6.45;;;3.15;;
32347;SDS011;18821;44.800;10.326;2023-06-10T06:33:21;10.23;;;3.63;;
32347;SDS011;18821;44.800;10.326;2023-06-10T06:35:47;5.30;;;3.42;;
32347;SDS011;18821;44.800;10.326;2023-06-10T06:38:12;4.78;;;2.55;;
32347;SDS011;18821;44.800;10.326;2023-06-10T06:40:38;6.20;;;2.88;;
32347;SDS011;18821;44.800;10.326;2023-06-10T06:43:04;9.57;;;3.38;;
32347;SDS011;18821;44.800;10.326;2023-06-10T06:45:49;6.07;;;3.60;;
32347;SDS011;18821;44.800;10.326;2023-06-10T06:48:15;6.15;;;3.53;;
32347;SDS011;18821;44.800;10.326;2023-06-10T06:50:41;6.53;;;3.60;;
32347;SDS011;18821;44.800;10.326;2023-06-10T06:53:07;8.73;;;3.90;;
32347;SDS011;18821;44.800;10.326;2023-06-10T06:55:33;7.95;;;3.47;;
32347;SDS011;18821;44.800;10.326;2023-06-10T06:57:59;5.97;;;4.22;;
32347;SDS011;18821;44.800;10.326;2023-06-10T07:00:28;6.57;;;3.33;;
32347;SDS011;18821;44.800;10.326;2023-06-10T07:02:53;7.40;;;4.15;;
32347;SDS011;18821;44.800;10.326;2023-06-10T07:05:20;10.65;;;4.72;;
32347;SDS011;18821;44.800;10.326;2023-06-10T07:07:46;9.73;;;4.00;;
32347;SDS011;18821;44.800;10.326;2023-06-10T07:10:12;7.90;;;3.38;;
32347;SDS011;18821;44.800;10.326;2023-06-10T07:12:38;7.13;;;4.13;;
32347;SDS011;18821;44.800;10.326;2023-06-10T07:15:04;7.50;;;4.18;;
32347;SDS011;18821;44.800;10.326;2023-06-10T07:17:31;7.57;;;3.58;;
32347;SDS011;18821;44.800;10.326;2023-06-10T07:19:56;8.88;;;3.60;;
32347;SDS011;18821;44.800;10.326;2023-06-10T07:22:24;7.07;;;2.97;;
32347;SDS011;18821;44.800;10.326;2023-06-10T07:24:50;7.15;;;2.75;;
32347;SDS011;18821;44.800;10.326;2023-06-10T07:27:17;4.53;;;3.10;;
32347;SDS011;18821;44.800;10.326;2023-06-10T07:29:43;7.50;;;3.40;;
32347;SDS011;18821;44.800;10.326;2023-06-10T07:32:09;7.80;;;2.53;;
32347;SDS011;18821;44.800;10.326;2023-06-10T07:34:35;5.10;;;2.72;;
32347;SDS011;18821;44.800;10.326;2023-06-10T07:37:01;9.50;;;3.10;;
32347;SDS011;18821;44.800;10.326;2023-06-10T07:39:27;5.43;;;3.20;;
32347;SDS011;18821;44.800;10.326;2023-06-10T07:41:53;7.10;;;3.63;;
32347;SDS011;18821;44.800;10.326;2023-06-10T07:44:21;7.28;;;3.80;;
32347;SDS011;18821;44.800;10.326;2023-06-10T07:46:46;6.90;;;3.47;;
32347;SDS011;18821;44.800;10.326;2023-06-10T07:49:12;6.72;;;3.60;;
32347;SDS011;18821;44.800;10.326;2023-06-10T07:51:38;7.95;;;2.97;;
32347;SDS011;18821;44.800;10.326;2023-06-10T07:54:04;10.75;;;3.70;;
32347;SDS011;18821;44.800;10.326;2023-06-10T07:56:30;7.68;;;3.20;;
32347;SDS011;18821;44.800;10.326;2023-06-10T07:58:57;5.10;;;2.53;;
32347;SDS011;18821;44.800;10.326;2023-06-10T08:01:23;9.88;;;3.08;;
32347;SDS011;18821;44.800;10.326;2023-06-10T08:03:49;4.90;;;2.65;;
32347;SDS011;18821;44.800;10.326;2023-06-10T08:06:15;6.35;;;3.05;;
32347;SDS011;18821;44.800;10.326;2023-06-10T08:08:42;7.13;;;3.35;;
32347;SDS011;18821;44.800;10.326;2023-06-10T08:11:12;6.85;;;3.10;;
32347;SDS011;18821;44.800;10.326;2023-06-10T08:13:38;9.05;;;3.40;;
32347;SDS011;18821;44.800;10.326;2023-06-10T08:16:05;6.88;;;3.70;;
32347;SDS011;18821;44.800;10.326;2023-06-10T08:18:31;10.20;;;3.60;;
32347;SDS011;18821;44.800;10.326;2023-06-10T08:20:57;7.38;;;3.78;;
32347;SDS011;18821;44.800;10.326;2023-06-10T08:23:23;7.03;;;4.03;;
32347;SDS011;18821;44.800;10.326;2023-06-10T08:25:49;7.10;;;3.45;;
32347;SDS011;18821;44.800;10.326;2023-06-10T08:28:16;5.63;;;3.40;;
32347;SDS011;18821;44.800;10.326;2023-06-10T08:30:42;6.80;;;3.50;;
32347;SDS011;18821;44.800;10.326;2023-06-10T08:33:08;6.97;;;3.75;;
32347;SDS011;18821;44.800;10.326;2023-06-10T08:35:34;6.93;;;3.55;;
32347;SDS011;18821;44.800;10.326;2023-06-10T08:38:00;6.55;;;3.25;;
32347;SDS011;18821;44.800;10.326;2023-06-10T08:40:26;8.43;;;3.47;;
32347;SDS011;18821;44.800;10.326;2023-06-10T08:45:23;4.63;;;2.90;;
32347;SDS011;18821;44.800;10.326;2023-06-10T08:47:52;7.72;;;2.75;;
32347;SDS011;18821;44.800;10.326;2023-06-10T08:50:22;5.57;;;3.17;;
32347;SDS011;18821;44.800;10.326;2023-06-10T08:52:50;8.40;;;2.45;;
32347;SDS011;18821;44.800;10.326;2023-06-10T08:55:23;7.25;;;2.47;;
32347;SDS011;18821;44.800;10.326;2023-06-10T08:57:54;3.63;;;2.15;;
32347;SDS011;18821;44.800;10.326;2023-06-10T09:00:21;3.67;;;1.98;;
32347;SDS011;18821;44.800;10.326;2023-06-10T09:02:48;7.95;;;2.80;;
32347;SDS011;18821;44.800;10.326;2023-06-10T09:05:15;9.35;;;3.47;;
32347;SDS011;18821;44.800;10.326;2023-06-10T09:07:41;4.00;;;2.63;;
32347;SDS011;18821;44.800;10.326;2023-06-10T09:10:08;5.82;;;2.72;;
32347;SDS011;18821;44.800;10.326;2023-06-10T09:12:35;6.18;;;3.60;;
32347;SDS011;18821;44.800;10.326;2023-06-10T09:15:03;6.07;;;3.72;;
32347;SDS011;18821;44.800;10.326;2023-06-10T09:17:30;12.30;;;5.38;;
32347;SDS011;18821;44.800;10.326;2023-06-10T09:19:57;7.60;;;4.10;;
32347;SDS011;18821;44.800;10.326;2023-06-10T09:22:25;8.63;;;4.53;;
32347;SDS011;18821;44.800;10.326;2023-06-10T09:24:52;12.60;;;4.65;;
32347;SDS011;18821;44.800;10.326;2023-06-10T09:30:30;8.45;;;4.82;;
32347;SDS011;18821;44.800;10.326;2023-06-10T09:32:59;10.48;;;4.80;;
32347;SDS011;18821;44.800;10.326;2023-06-10T09:35:35;10.32;;;4.72;;
32347;SDS011;18821;44.800;10.326;2023-06-10T09:38:01;5.82;;;3.70;;
32347;SDS011;18821;44.800;10.326;2023-06-10T09:40:27;8.48;;;4.28;;
32347;SDS011;18821;44.800;10.326;2023-06-10T09:42:55;8.15;;;3.78;;
32347;SDS011;18821;44.800;10.326;2023-06-10T09:45:29;7.82;;;5.15;;
32347;SDS011;18821;44.800;10.326;2023-06-10T09:47:56;8.85;;;5.03;;
32347;SDS011;18821;44.800;10.326;2023-06-10T09:50:22;9.68;;;4.82;;
32347;SDS011;18821;44.800;10.326;2023-06-10T09:52:49;7.93;;;5.85;;
32347;SDS011;18821;44.800;10.326;2023-06-10T09:55:16;6.55;;;4.90;;
32347;SDS011;18821;44.800;10.326;2023-06-10T09:57:42;9.98;;;5.47;;
32347;SDS011;18821;44.800;10.326;2023-06-10T10:00:13;9.18;;;4.68;;
32347;SDS011;18821;44.800;10.326;2023-06-10T10:02:50;10.93;;;7.05;;
32347;SDS011;18821;44.800;10.326;2023-06-10T10:05:19;8.75;;;6.90;;
32347;SDS011;18821;44.800;10.326;2023-06-10T10:07:47;16.52;;;7.03;;
32347;SDS011;18821;44.800;10.326;2023-06-10T10:10:14;9.57;;;7.65;;
32347;SDS011;18821;44.800;10.326;2023-06-10T10:12:41;13.50;;;6.80;;
32347;SDS011;18821;44.800;10.326;2023-06-10T10:15:08;12.27;;;7.00;;
32347;SDS011;18821;44.800;10.326;2023-06-10T10:17:45;8.27;;;6.93;;
32347;SDS011;18821;44.800;10.326;2023-06-10T10:20:20;10.52;;;7.00;;
32347;SDS011;18821;44.800;10.326;2023-06-10T10:22:48;11.02;;;7.57;;
32347;SDS011;18821;44.800;10.326;2023-06-10T10:25:22;36.90;;;9.38;;
32347;SDS011;18821;44.800;10.326;2023-06-10T10:27:51;14.27;;;8.00;;
32347;SDS011;18821;44.800;10.326;2023-06-10T10:30:20;11.15;;;8.07;;
32347;SDS011;18821;44.800;10.326;2023-06-10T10:35:23;12.93;;;8.00;;
32347;SDS011;18821;44.800;10.326;2023-06-10T10:37:54;13.00;;;7.97;;
32347;SDS011;18821;44.800;10.326;2023-06-10T10:40:21;10.98;;;7.45;;
32347;SDS011;18821;44.800;10.326;2023-06-10T10:42:50;13.27;;;7.72;;
32347;SDS011;18821;44.800;10.326;2023-06-10T10:45:17;12.80;;;8.05;;
32347;SDS011;18821;44.800;10.326;2023-06-10T10:47:45;11.32;;;7.85;;
32347;SDS011;18821;44.800;10.326;2023-06-10T10:50:18;14.20;;;8.73;;
32347;SDS011;18821;44.800;10.326;2023-06-10T10:52:48;15.18;;;8.77;;
32347;SDS011;18821;44.800;10.326;2023-06-10T10:55:16;11.50;;;8.15;;
32347;SDS011;18821;44.800;10.326;2023-06-10T10:57:43;12.23;;;8.73;;
32347;SDS011;18821;44.800;10.326;2023-06-10T11:00:09;16.95;;;8.55;;
32347;SDS011;18821;44.800;10.326;2023-06-10T11:05:15;11.30;;;8.07;;
32347;SDS011;18821;44.800;10.326;2023-06-10T11:07:51;14.40;;;8.75;;
32347;SDS011;18821;44.800;10.326;2023-06-10T11:10:31;13.70;;;8.90;;
32347;SDS011;18821;44.800;10.326;2023-06-10T11:13:05;14.90;;;9.73;;
32347;SDS011;18821;44.800;10.326;2023-06-10T11:15:45;12.35;;;8.68;;
32347;SDS011;18821;44.800;10.326;2023-06-10T11:20:45;13.05;;;8.63;;
32347;SDS011;18821;44.800;10.326;2023-06-10T11:23:37;14.23;;;10.15;;
32347;SDS011;18821;44.800;10.326;2023-06-10T11:26:10;13.27;;;9.73;;
32347;SDS011;18821;44.800;10.326;2023-06-10T11:31:19;11.52;;;8.57;;
32347;SDS011;18821;44.800;10.326;2023-06-10T11:33:52;15.50;;;8.63;;
32347;SDS011;18821;44.800;10.326;2023-06-10T11:36:19;14.40;;;8.73;;
32347;SDS011;18821;44.800;10.326;2023-06-10T11:38:45;17.05;;;8.15;;
32347;SDS011;18821;44.800;10.326;2023-06-10T11:41:11;14.15;;;7.90;;
32347;SDS011;18821;44.800;10.326;2023-06-10T11:43:40;13.10;;;7.63;;
32347;SDS011;18821;44.800;10.326;2023-06-10T11:46:09;13.02;;;7.63;;
32347;SDS011;18821;44.800;10.326;2023-06-10T11:48:35;14.43;;;8.77;;
32347;SDS011;18821;44.800;10.326;2023-06-10T11:51:08;10.38;;;7.25;;
32347;SDS011;18821;44.800;10.326;2023-06-10T11:53:34;13.30;;;7.82;;
32347;SDS011;18821;44.800;10.326;2023-06-10T11:56:00;10.95;;;7.28;;
32347;SDS011;18821;44.800;10.326;2023-06-10T11:58:26;8.32;;;6.38;;
32347;SDS011;18821;44.800;10.326;2023-06-10T12:00:53;13.13;;;6.22;;
32347;SDS011;18821;44.800;10.326;2023-06-10T12:03:23;12.60;;;6.88;;
32347;SDS011;18821;44.800;10.326;2023-06-10T12:05:56;12.73;;;7.13;;
32347;SDS011;18821;44.800;10.326;2023-06-10T12:08:23;9.93;;;6.03;;
32347;SDS011;18821;44.800;10.326;2023-06-10T12:10:50;12.75;;;6.05;;
32347;SDS011;18821;44.800;10.326;2023-06-10T12:13:16;8.35;;;6.65;;
32347;SDS011;18821;44.800;10.326;2023-06-10T12:15:45;7.45;;;6.13;;
32347;SDS011;18821;44.800;10.326;2023-06-10T12:18:18;10.43;;;5.97;;
32347;SDS011;18821;44.800;10.326;2023-06-10T12:20:45;9.77;;;6.32;;
32347;SDS011;18821;44.800;10.326;2023-06-10T12:23:12;9.65;;;5.40;;
32347;SDS011;18821;44.800;10.326;2023-06-10T12:25:38;10.77;;;6.03;;
32347;SDS011;18821;44.800;10.326;2023-06-10T12:28:05;8.95;;;5.90;;
32347;SDS011;18821;44.800;10.326;2023-06-10T12:30:34;7.97;;;5.40;;
32347;SDS011;18821;44.800;10.326;2023-06-10T12:33:00;9.02;;;5.82;;
32347;SDS011;18821;44.800;10.326;2023-06-10T12:35:26;8.60;;;5.32;;
32347;SDS011;18821;44.800;10.326;2023-06-10T12:40:31;10.80;;;4.88;;
32347;SDS011;18821;44.800;10.326;2023-06-10T12:42:58;8.75;;;5.60;;
32347;SDS011;18821;44.800;10.326;2023-06-10T12:45:32;8.38;;;5.00;;
32347;SDS011;18821;44.800;10.326;2023-06-10T12:48:16;8.98;;;4.82;;
32347;SDS011;18821;44.800;10.326;2023-06-10T12:53:19;7.57;;;4.82;;
32347;SDS011;18821;44.800;10.326;2023-06-10T12:55:46;6.78;;;4.30;;
32347;SDS011;18821;44.800;10.326;2023-06-10T12:58:12;7.68;;;4.07;;
32347;SDS011;18821;44.800;10.326;2023-06-10T13:00:39;7.95;;;4.20;;
32347;SDS011;18821;44.800;10.326;2023-06-10T13:03:07;10.35;;;4.78;;
32347;SDS011;18821;44.800;10.326;2023-06-10T13:05:34;7.95;;;4.80;;
32347;SDS011;18821;44.800;10.326;2023-06-10T13:08:04;8.60;;;4.93;;
32347;SDS011;18821;44.800;10.326;2023-06-10T13:10:35;11.45;;;5.22;;
32347;SDS011;18821;44.800;10.326;2023-06-10T13:13:02;12.55;;;5.80;;
32347;SDS011;18821;44.800;10.326;2023-06-10T13:15:34;9.93;;;6.18;;
32347;SDS011;18821;44.800;10.326;2023-06-10T13:18:03;10.02;;;6.50;;
32347;SDS011;18821;44.800;10.326;2023-06-10T13:20:30;9.68;;;6.07;;
32347;SDS011;18821;44.800;10.326;2023-06-10T13:22:56;9.73;;;5.20;;
32347;SDS011;18821;44.800;10.326;2023-06-10T13:25:22;8.52;;;5.43;;
32347;SDS011;18821;44.800;10.326;2023-06-10T13:27:48;8.70;;;5.13;;
32347;SDS011;18821;44.800;10.326;2023-06-10T13:30:14;13.82;;;5.78;;
32347;SDS011;18821;44.800;10.326;2023-06-10T13:32:40;8.52;;;5.47;;
32347;SDS011;18821;44.800;10.326;2023-06-10T13:35:06;7.30;;;4.45;;
32347;SDS011;18821;44.800;10.326;2023-06-10T13:37:33;6.63;;;4.05;;
32347;SDS011;18821;44.800;10.326;2023-06-10T13:40:00;6.85;;;4.38;;
32347;SDS011;18821;44.800;10.326;2023-06-10T13:42:27;7.32;;;4.15;;
32347;SDS011;18821;44.800;10.326;2023-06-10T13:44:54;9.05;;;4.75;;
32347;SDS011;18821;44.800;10.326;2023-06-10T13:47:20;9.18;;;4.50;;
32347;SDS011;18821;44.800;10.326;2023-06-10T13:49:46;8.70;;;4.53;;
32347;SDS011;18821;44.800;10.326;2023-06-10T13:52:12;9.15;;;4.50;;
32347;SDS011;18821;44.800;10.326;2023-06-10T13:54:38;13.77;;;4.35;;
32347;SDS011;18821;44.800;10.326;2023-06-10T13:57:04;9.38;;;3.55;;
32347;SDS011;18821;44.800;10.326;2023-06-10T13:59:30;10.23;;;4.40;;
32347;SDS011;18821;44.800;10.326;2023-06-10T14:01:56;7.45;;;4.97;;
32347;SDS011;18821;44.800;10.326;2023-06-10T14:04:22;6.05;;;3.53;;
32347;SDS011;18821;44.800;10.326;2023-06-10T14:06:48;6.65;;;3.22;;
32347;SDS011;18821;44.800;10.326;2023-06-10T14:09:13;8.13;;;3.10;;
32347;SDS011;18821;44.800;10.326;2023-06-10T14:11:41;5.35;;;2.75;;
32347;SDS011;18821;44.800;10.326;2023-06-10T14:14:07;9.57;;;3.38;;
32347;SDS011;18821;44.800;10.326;2023-06-10T14:16:34;5.78;;;3.88;;
32347;SDS011;18821;44.800;10.326;2023-06-10T14:19:00;6.95;;;3.70;;
32347;SDS011;18821;44.800;10.326;2023-06-10T14:21:26;9.55;;;2.88;;
32347;SDS011;18821;44.800;10.326;2023-06-10T14:23:52;5.05;;;3.28;;
32347;SDS011;18821;44.800;10.326;2023-06-10T14:26:18;6.55;;;3.42;;
32347;SDS011;18821;44.800;10.326;2023-06-10T14:28:47;7.28;;;3.67;;
32347;SDS011;18821;44.800;10.326;2023-06-10T14:31:13;5.47;;;2.97;;
32347;SDS011;18821;44.800;10.326;2023-06-10T14:33:39;9.23;;;3.00;;
32347;SDS011;18821;44.800;10.326;2023-06-10T14:36:08;12.48;;;4.28;;
32347;SDS011;18821;44.800;10.326;2023-06-10T14:38:41;6.03;;;3.15;;
32347;SDS011;18821;44.800;10.326;2023-06-10T14:41:12;8.32;;;4.05;;
32347;SDS011;18821;44.800;10.326;2023-06-10T14:43:38;6.82;;;2.92;;
32347;SDS011;18821;44.800;10.326;2023-06-10T14:46:04;9.80;;;4.10;;
32347;SDS011;18821;44.800;10.326;2023-06-10T14:48:30;10.68;;;3.33;;
32347;SDS011;18821;44.800;10.326;2023-06-10T14:50:56;6.97;;;3.30;;
32347;SDS011;18821;44.800;10.326;2023-06-10T14:53:22;12.00;;;3.70;;
32347;SDS011;18821;44.800;10.326;2023-06-10T14:55:48;8.13;;;4.03;;
32347;SDS011;18821;44.800;10.326;2023-06-10T14:58:13;7.28;;;3.45;;